Time;durP1;ratioP1;P1;durP2;ratioP2;P2;SDS_P1;SDS_P2;PMS_P1;PMS_P2;Temp;Humidity;BMP_temperature;BMP_pressure;BME280_temperature;BME280_humidity;BME280_pressure;Samples;Min_cycle;Max_cycle;Signal;HPM_P1;HPM_P2
2021/10/26 00:02:01;;;;;;;41.37;21.05;;;;;;;3.75;75.80;100852.88;1796515;79;25500;-59
2021/10/26 00:04:28;;;;;;;46.42;21.27;;;;;;;3.74;75.59;100857.41;1796470;79;27181;-59
2021/10/26 00:06:56;;;;;;;45.38;21.85;;;;;;;3.76;75.85;100863.05;1792438;79;25536;-60
2021/10/26 00:09:24;;;;;;;47.03;22.05;;;;;;;3.75;75.79;100855.55;1790645;78;25417;-59
2021/10/26 00:11:52;;;;;;;36.55;20.17;;;;;;;3.74;75.74;100856.06;1790544;80;25633;-59
2021/10/26 00:14:19;;;;;;;39.78;20.88;;;;;;;3.73;75.75;100859.02;1790685;80;25528;-59
2021/10/26 00:16:47;;;;;;;42.75;21.30;;;;;;;3.74;75.56;100860.62;1790616;80;27191;-59
2021/10/26 00:19:14;;;;;;;43.33;22.70;;;;;;;3.71;75.53;100853.91;1790517;80;25572;-59
2021/10/26 00:21:43;;;;;;;43.68;21.95;;;;;;;3.69;75.59;100850.66;1790564;80;25489;-59
2021/10/26 00:25:36;;;;;;;43.45;22.15;;;;;;;3.72;75.58;100849.36;1866448;76;34873;-58
2021/10/26 00:28:06;;;;;;;49.50;22.98;;;;;;;3.64;75.84;100847.11;1755809;81;25522;-58
2021/10/26 00:30:32;;;;;;;44.73;22.98;;;;;;;3.64;75.87;100843.91;1776372;80;27543;-58
2021/10/26 00:32:59;;;;;;;42.53;22.42;;;;;;;3.63;75.72;100843.64;1776232;80;25628;-59
2021/10/26 00:35:28;;;;;;;46.15;23.67;;;;;;;3.62;75.87;100847.36;1756209;81;25679;-58
2021/10/26 00:38:00;;;;;;;39.88;21.90;;;;;;;3.61;75.78;100845.77;1776326;80;25717;-58
2021/10/26 00:40:27;;;;;;;46.83;21.95;;;;;;;3.59;75.77;100847.05;1753055;80;25677;-59
2021/10/26 00:42:54;;;;;;;46.08;21.62;;;;;;;3.59;75.51;100847.85;1745548;82;27512;-58
2021/10/26 00:45:21;;;;;;;46.40;23.07;;;;;;;3.58;75.54;100842.78;1745446;82;25827;-58
2021/10/26 00:47:48;;;;;;;50.33;23.67;;;;;;;3.56;75.67;100844.36;1745571;82;25720;-58
2021/10/26 00:50:15;;;;;;;42.13;23.00;;;;;;;3.55;75.57;100848.08;1745580;82;26079;-58
2021/10/26 00:52:45;;;;;;;45.48;22.82;;;;;;;3.53;75.66;100851.00;1745637;82;25696;-59
2021/10/26 00:55:13;;;;;;;47.93;22.85;;;;;;;3.50;75.62;100846.14;1745585;82;26935;-59
2021/10/26 00:57:40;;;;;;;43.98;21.30;;;;;;;3.49;75.50;100842.38;1745434;82;25530;-59
2021/10/26 01:00:09;;;;;;;42.93;23.62;;;;;;;3.48;75.75;100840.77;1745481;82;25486;-58
2021/10/26 01:02:40;;;;;;;45.25;23.02;;;;;;;3.46;75.83;100848.24;1745704;82;25244;-58
2021/10/26 01:05:07;;;;;;;43.73;21.65;;;;;;;3.42;75.85;100842.55;1745595;81;25622;-58
2021/10/26 01:07:35;;;;;;;45.55;23.77;;;;;;;3.40;75.61;100846.01;1745523;82;28140;-59
2021/10/26 01:10:04;;;;;;;39.95;22.50;;;;;;;3.38;75.66;100840.10;1745465;80;25519;-59
2021/10/26 01:12:31;;;;;;;40.58;22.13;;;;;;;3.35;75.79;100840.59;1745770;81;25539;-59
2021/10/26 01:14:58;;;;;;;45.50;21.48;;;;;;;3.33;75.66;100837.36;1745474;82;25578;-59
2021/10/26 01:17:27;;;;;;;37.05;20.32;;;;;;;3.31;75.72;100839.48;1745505;82;25444;-59
2021/10/26 01:19:57;;;;;;;43.77;22.87;;;;;;;3.29;75.65;100837.59;1745810;82;28052;-59
2021/10/26 01:22:26;;;;;;;;;;;;;;;3.26;75.94;100837.54;1748015;82;25667;-59
2021/10/26 01:24:53;;;;;;;40.40;20.88;;;;;;;3.26;75.82;100839.41;1745478;81;25570;-59
2021/10/26 01:27:20;;;;;;;50.15;23.70;;;;;;;3.23;75.83;100831.34;1745444;82;25693;-59
2021/10/26 01:29:48;;;;;;;41.13;21.12;;;;;;;3.22;76.08;100831.08;1745523;82;25652;-59
2021/10/26 01:32:17;;;;;;;40.65;21.02;;;;;;;3.21;75.96;100832.12;1745486;82;28129;-59
2021/10/26 01:34:44;;;;;;;48.00;23.07;;;;;;;3.18;75.97;100833.44;1745404;82;25661;-59
2021/10/26 01:37:11;;;;;;;48.30;22.25;;;;;;;3.16;76.14;100827.50;1744892;82;25610;-59
2021/10/26 01:39:40;;;;;;;42.53;22.07;;;;;;;3.13;76.22;100830.70;1744894;80;25517;-59
2021/10/26 01:42:09;;;;;;;45.48;22.20;;;;;;;3.11;76.24;100830.64;1744986;82;25644;-59
2021/10/26 01:44:36;;;;;;;45.10;21.03;;;;;;;3.08;76.20;100826.61;1745162;82;28332;-59
2021/10/26 01:47:03;;;;;;;45.65;20.17;;;;;;;3.05;76.35;100820.42;1744862;81;25848;-59
2021/10/26 01:49:30;;;;;;;38.25;19.27;;;;;;;3.04;76.53;100817.98;1744957;81;25468;-59
2021/10/26 01:51:57;;;;;;;46.30;21.12;;;;;;;3.01;76.73;100819.81;1744896;82;25666;-58
2021/10/26 01:54:24;;;;;;;39.10;19.48;;;;;;;2.96;76.56;100817.36;1744952;81;25692;-59
2021/10/26 01:56:51;;;;;;;46.70;21.20;;;;;;;2.94;76.79;100822.11;1744918;82;28102;-59
2021/10/26 01:59:17;;;;;;;39.48;20.10;;;;;;;2.90;76.60;100818.86;1744874;82;25644;-59
2021/10/26 02:01:45;;;;;;;41.10;21.02;;;;;;;2.89;76.82;100823.91;1744907;82;25621;-59
2021/10/26 02:04:12;;;;;;;42.23;20.88;;;;;;;2.87;76.87;100821.48;1744837;82;25468;-59
2021/10/26 02:06:38;;;;;;;42.70;21.40;;;;;;;2.84;76.68;100818.48;1744953;82;25440;-59
2021/10/26 02:09:05;;;;;;;46.35;21.70;;;;;;;2.79;76.87;100816.03;1744915;80;27677;-59
2021/10/26 02:11:32;;;;;;;43.35;20.85;;;;;;;2.77;77.09;100819.45;1744827;82;25519;-59
2021/10/26 02:13:58;;;;;;;43.75;20.32;;;;;;;2.74;77.04;100813.28;1744902;82;25505;-59
2021/10/26 02:16:25;;;;;;;37.80;19.32;;;;;;;2.71;76.89;100808.96;1744861;81;25516;-58
2021/10/26 02:18:52;;;;;;;45.95;22.35;;;;;;;2.70;77.40;100816.67;1744958;81;25528;-58
2021/10/26 02:21:18;;;;;;;41.50;21.62;;;;;;;2.68;77.18;100815.58;1744921;82;27597;-59
2021/10/26 02:23:46;;;;;;;41.08;19.80;;;;;;;2.65;77.39;100813.39;1744794;82;25621;-59
2021/10/26 02:26:12;;;;;;;45.33;20.48;;;;;;;2.63;77.26;100816.04;1760962;81;25608;-59
2021/10/26 02:28:39;;;;;;;41.65;21.68;;;;;;;2.59;77.49;100815.18;1761171;81;25605;-59
2021/10/26 02:31:06;;;;;;;43.42;20.30;;;;;;;2.56;77.18;100823.67;1761231;81;25681;-58
2021/10/26 02:33:33;;;;;;;44.10;21.70;;;;;;;2.53;77.49;100823.35;1761254;81;27487;-59
2021/10/26 02:35:59;;;;;;;41.05;22.45;;;;;;;2.50;77.27;100813.95;1761152;81;25646;-59
2021/10/26 02:38:26;;;;;;;37.85;20.12;;;;;;;2.47;77.23;100811.78;1761191;81;25499;-58
2021/10/26 02:40:52;;;;;;;42.25;21.37;;;;;;;2.45;77.06;100810.39;1761243;80;25522;-59
2021/10/26 02:43:19;;;;;;;43.00;22.10;;;;;;;2.41;77.58;100818.88;1761229;81;25456;-59
2021/10/26 02:45:46;;;;;;;41.85;20.95;;;;;;;2.39;77.48;100810.84;1761154;81;27522;-58
2021/10/26 02:48:12;;;;;;;40.58;21.80;;;;;;;2.34;77.68;100808.09;1761076;81;25593;-59
2021/10/26 02:50:39;;;;;;;44.75;20.77;;;;;;;2.31;77.69;100809.36;1761178;81;25499;-59
2021/10/26 02:53:06;;;;;;;40.98;20.65;;;;;;;2.29;77.60;100808.00;1761168;81;25633;-59
2021/10/26 02:55:33;;;;;;;45.90;22.62;;;;;;;2.25;77.96;100806.34;1761250;81;25628;-59
2021/10/26 02:57:59;;;;;;;43.48;22.22;;;;;;;2.21;77.89;100805.19;1761180;81;27540;-59
2021/10/26 03:00:26;;;;;;;41.60;22.07;;;;;;;2.17;77.87;100807.53;1761108;81;27305;-59
2021/10/26 03:02:53;;;;;;;42.73;21.60;;;;;;;2.14;77.81;100809.34;1761202;81;25475;-58
2021/10/26 03:05:19;;;;;;;42.53;21.42;;;;;;;2.12;77.79;100815.45;1761137;81;25677;-59
2021/10/26 03:07:46;;;;;;;44.95;21.45;;;;;;;2.08;78.02;100809.48;1761234;80;25711;-59
2021/10/26 03:10:15;;;;;;;44.40;21.25;;;;;;;2.07;77.86;100815.89;1761134;80;27488;-58
2021/10/26 03:12:42;;;;;;;43.05;21.33;;;;;;;2.03;77.92;100812.36;1761117;81;25944;-59
2021/10/26 03:15:11;;;;;;;39.55;22.20;;;;;;;2.00;77.83;100807.49;1761278;81;25479;-59
2021/10/26 03:17:39;;;;;;;40.20;20.95;;;;;;;1.97;78.04;100812.50;1761308;81;25664;-58
2021/10/26 03:20:07;;;;;;;44.08;21.87;;;;;;;1.94;77.77;100820.47;1761225;81;25645;-59
2021/10/26 03:22:34;;;;;;;39.38;20.55;;;;;;;1.90;78.21;100811.30;1761199;81;27557;-59
2021/10/26 03:25:02;;;;;;;39.75;20.88;;;;;;;1.86;78.41;100813.64;1755484;81;25617;-59
2021/10/26 03:27:30;;;;;;;45.38;22.95;;;;;;;1.82;78.50;100807.68;1744875;82;25496;-58
2021/10/26 03:29:57;;;;;;;48.00;22.40;;;;;;;1.78;78.63;100801.21;1715634;82;26039;-58
2021/10/26 03:32:25;;;;;;;40.83;20.43;;;;;;;1.75;79.03;100801.69;1744870;82;25619;-59
2021/10/26 03:34:51;;;;;;;48.85;22.17;;;;;;;1.69;79.00;100806.12;1744839;81;27447;-59
2021/10/26 03:37:19;;;;;;;41.75;21.00;;;;;;;1.66;79.13;100811.39;1744753;82;25809;-59
2021/10/26 03:39:47;;;;;;;37.67;19.98;;;;;;;1.63;79.28;100812.39;1744804;80;25613;-58
2021/10/26 03:42:14;;;;;;;38.75;20.17;;;;;;;1.60;79.30;100811.02;1744799;82;25665;-59
2021/10/26 03:44:43;;;;;;;45.60;21.02;;;;;;;1.57;79.28;100810.15;1744857;82;25485;-59
2021/10/26 03:47:10;;;;;;;49.23;21.35;;;;;;;1.56;79.48;100815.72;1745126;82;27447;-60
2021/10/26 03:49:37;;;;;;;41.18;21.07;;;;;;;1.54;79.76;100811.15;1744763;82;25625;-59
2021/10/26 03:52:05;;;;;;;41.55;21.65;;;;;;;1.54;79.68;100814.62;1744867;82;25501;-58
2021/10/26 03:54:32;;;;;;;39.35;20.82;;;;;;;1.53;79.83;100814.84;1744844;81;25603;-59
2021/10/26 03:56:59;;;;;;;37.93;21.00;;;;;;;1.51;79.89;100812.41;1744946;82;25753;-59
2021/10/26 03:59:30;;;;;;;37.42;20.35;;;;;;;1.51;80.31;100821.75;1744895;82;27443;-58
2021/10/26 04:01:58;;;;;;;42.58;20.17;;;;;;;1.47;79.95;100812.61;1744793;82;25636;-57
2021/10/26 04:04:25;;;;;;;44.60;21.80;;;;;;;1.46;79.90;100816.31;1744812;82;25720;-57
2021/10/26 04:06:52;;;;;;;42.93;20.50;;;;;;;1.44;79.92;100807.74;1744890;82;25532;-57
2021/10/26 04:09:25;;;;;;;39.25;19.37;;;;;;;1.42;80.22;100810.64;1744872;80;25579;-60
2021/10/26 04:12:32;;;;;;;41.53;20.72;;;;;;;1.41;80.07;100803.67;1743650;82;28351;-58
2021/10/26 04:14:15;;;;;;;42.35;20.37;;;;;;;1.40;80.58;100808.73;1705337;82;25674;-57
2021/10/26 04:16:42;;;;;;;44.67;21.00;;;;;;;1.39;80.47;100805.77;1744827;82;25633;-58
2021/10/26 04:19:10;;;;;;;38.80;19.50;;;;;;;1.39;80.60;100807.11;1744780;81;25684;-58
2021/10/26 04:21:37;;;;;;;41.37;21.23;;;;;;;1.37;80.42;100804.41;1744850;82;25612;-58
2021/10/26 04:24:04;;;;;;;41.18;20.50;;;;;;;1.36;80.34;100804.10;1744789;81;26604;-57
2021/10/26 04:26:31;;;;;;;40.92;20.32;;;;;;;1.34;80.80;100801.67;1744706;82;25573;-57
2021/10/26 04:28:57;;;;;;;40.28;20.82;;;;;;;1.32;80.76;100801.62;1744802;82;25662;-57
2021/10/26 04:31:24;;;;;;;45.95;22.20;;;;;;;1.33;80.64;100801.91;1744845;82;25649;-57
2021/10/26 04:33:52;;;;;;;36.80;20.57;;;;;;;1.32;80.77;100794.44;1744806;81;25443;-57
2021/10/26 04:36:19;;;;;;;43.13;20.62;;;;;;;1.30;80.81;100795.20;1744781;82;27467;-58
2021/10/26 04:38:48;;;;;;;39.80;21.05;;;;;;;1.30;80.78;100796.00;1744674;80;25636;-58
2021/10/26 04:41:14;;;;;;;40.12;20.23;;;;;;;1.29;80.71;100793.56;1744923;82;25612;-58
2021/10/26 04:43:41;;;;;;;40.10;19.65;;;;;;;1.28;80.91;100786.63;1744749;82;25527;-58
2021/10/26 04:46:07;;;;;;;40.70;19.50;;;;;;;1.28;81.19;100795.96;1744877;82;25592;-58
2021/10/26 04:48:35;;;;;;;42.88;21.05;;;;;;;1.28;80.93;100794.63;1744822;82;27519;-59
2021/10/26 04:51:03;;;;;;;33.80;20.05;;;;;;;1.28;81.06;100785.30;1744758;82;25457;-59
2021/10/26 04:53:29;;;;;;;38.35;20.90;;;;;;;1.28;80.90;100783.97;1744802;82;25513;-59
2021/10/26 04:55:56;;;;;;;38.50;20.17;;;;;;;1.27;81.01;100789.00;1744714;82;25669;-59
2021/10/26 04:58:23;;;;;;;37.80;19.20;;;;;;;1.25;81.08;100782.57;1744825;81;25717;-59
2021/10/26 05:00:50;;;;;;;40.05;18.32;;;;;;;1.26;81.32;100776.70;1744788;81;27487;-59
2021/10/26 05:03:17;;;;;;;38.50;18.92;;;;;;;1.25;81.34;100773.77;1744633;82;25646;-61
2021/10/26 05:05:43;;;;;;;45.73;22.05;;;;;;;1.26;81.68;100782.04;1744726;82;25467;-61
2021/10/26 05:08:10;;;;;;;34.05;20.30;;;;;;;1.26;81.78;100780.70;1744747;82;26130;-60
2021/10/26 05:10:37;;;;;;;39.90;19.50;;;;;;;1.25;81.54;100787.09;1744806;80;25582;-61
2021/10/26 05:13:04;;;;;;;41.35;20.77;;;;;;;1.23;81.67;100779.34;1744921;82;27501;-61
2021/10/26 05:15:30;;;;;;;38.08;20.00;;;;;;;1.23;81.54;100779.87;1744858;82;25589;-61
2021/10/26 05:17:58;;;;;;;38.92;19.57;;;;;;;1.23;81.49;100776.67;1744936;82;25616;-60
2021/10/26 05:20:27;;;;;;;39.05;20.72;;;;;;;1.24;82.12;100780.13;1744903;81;25705;-59
2021/10/26 05:22:55;;;;;;;41.92;19.82;;;;;;;1.24;81.88;100782.80;1744336;81;25511;-60
2021/10/26 05:25:22;;;;;;;41.25;19.77;;;;;;;1.23;81.51;100780.67;1747990;81;27524;-62
2021/10/26 05:27:50;;;;;;;41.75;19.12;;;;;;;1.24;81.69;100780.97;1761282;81;25488;-61
2021/10/26 05:30:16;;;;;;;38.05;20.00;;;;;;;1.24;81.46;100784.13;1761263;81;25654;-60
2021/10/26 05:32:43;;;;;;;41.95;20.35;;;;;;;1.25;81.76;100786.56;1761186;81;25649;-60
2021/10/26 05:35:10;;;;;;;39.85;20.20;;;;;;;1.27;81.85;100786.34;1761268;80;25624;-60
2021/10/26 05:37:37;;;;;;;45.03;19.12;;;;;;;1.29;81.77;100789.56;1761233;81;27569;-60
2021/10/26 05:40:06;;;;;;;39.40;19.27;;;;;;;1.27;81.73;100789.00;1761117;80;25829;-60
2021/10/26 05:42:33;;;;;;;38.48;19.20;;;;;;;1.30;82.10;100789.87;1761372;81;25687;-61
2021/10/26 05:45:00;;;;;;;38.35;19.42;;;;;;;1.32;82.18;100791.77;1761184;81;25606;-61
2021/10/26 05:47:27;;;;;;;37.83;19.25;;;;;;;1.34;82.45;100794.20;1761291;81;25703;-61
2021/10/26 05:49:55;;;;;;;39.05;19.73;;;;;;;1.35;82.18;100795.30;1761174;81;27441;-62
2021/10/26 05:52:24;;;;;;;37.25;19.27;;;;;;;1.37;82.05;100797.73;1761119;81;27310;-60
2021/10/26 05:54:51;;;;;;;40.55;19.42;;;;;;;1.41;82.50;100801.55;1761493;80;25683;-62
2021/10/26 05:57:18;;;;;;;33.10;19.02;;;;;;;1.41;82.29;100802.34;1761158;81;25529;-61
2021/10/26 05:59:44;;;;;;;40.58;20.62;;;;;;;1.44;82.45;100804.55;1761263;81;25778;-61
2021/10/26 06:02:11;;;;;;;38.28;20.40;;;;;;;1.49;82.45;100804.65;1761297;81;27045;-62
2021/10/26 06:04:38;;;;;;;31.30;18.67;;;;;;;1.55;82.46;100802.09;1761076;81;25466;-60
2021/10/26 06:07:05;;;;;;;36.03;20.40;;;;;;;1.59;82.56;100802.72;1761212;81;25707;-61
2021/10/26 06:09:34;;;;;;;38.70;19.82;;;;;;;1.65;82.48;100807.12;1761151;80;25921;-60
2021/10/26 06:12:01;;;;;;;38.92;19.55;;;;;;;1.69;82.53;100804.78;1761071;81;25466;-61
2021/10/26 06:14:28;;;;;;;37.23;20.15;;;;;;;1.74;82.44;100810.72;1761164;81;27466;-61
2021/10/26 06:16:55;;;;;;;38.78;19.17;;;;;;;1.79;82.32;100808.18;1761079;81;25444;-61
2021/10/26 06:19:22;;;;;;;36.13;19.10;;;;;;;1.86;82.30;100812.31;1761188;80;25668;-61
2021/10/26 06:21:48;;;;;;;38.42;19.10;;;;;;;1.94;82.50;100806.30;1761181;81;25684;-61
2021/10/26 06:24:15;;;;;;;35.05;18.17;;;;;;;2.01;82.19;100808.30;1761223;81;25478;-61
2021/10/26 06:26:41;;;;;;;36.40;19.82;;;;;;;2.09;82.18;100815.12;1751140;81;27505;-61
2021/10/26 06:29:08;;;;;;;37.67;19.25;;;;;;;2.16;81.98;100803.77;1744777;82;25418;-61
2021/10/26 06:31:35;;;;;;;36.05;19.27;;;;;;;2.25;82.11;100817.02;1744890;82;25536;-61
2021/10/26 06:34:01;;;;;;;39.83;19.90;;;;;;;2.35;81.85;100817.70;1744821;82;25537;-61
2021/10/26 06:36:28;;;;;;;41.05;18.70;;;;;;;2.46;82.01;100821.38;1744875;82;25477;-60
2021/10/26 06:38:54;;;;;;;34.03;18.73;;;;;;;2.63;81.98;100820.05;1744856;80;27577;-61
2021/10/26 06:41:22;;;;;;;38.08;19.85;;;;;;;2.78;81.85;100815.74;1744764;82;25678;-59
2021/10/26 06:43:48;;;;;;;33.60;18.67;;;;;;;2.94;81.71;100823.45;1744895;81;25468;-60
2021/10/26 06:46:16;;;;;;;40.48;20.02;;;;;;;3.08;81.32;100828.45;1744786;81;25649;-60
2021/10/26 06:48:43;;;;;;;39.42;19.20;;;;;;;3.14;80.71;100822.94;1744939;82;25483;-59
2021/10/26 06:51:10;;;;;;;31.25;17.45;;;;;;;3.23;80.47;100823.32;1744857;82;27563;-58
2021/10/26 06:53:39;;;;;;;35.92;18.15;;;;;;;3.33;80.10;100823.99;1744856;82;25605;-59
2021/10/26 06:56:10;;;;;;;33.05;17.15;;;;;;;3.42;80.00;100825.70;1744844;82;25764;-59
2021/10/26 06:58:34;;;;;;;34.13;19.75;;;;;;;3.53;79.79;100825.59;1744473;82;27698;-59
2021/10/26 07:01:06;;;;;;;32.08;18.37;;;;;;;3.59;79.87;100817.09;1744860;82;25494;-59
2021/10/26 07:03:29;;;;;;;31.80;17.52;;;;;;;3.86;80.40;100824.36;1744007;82;27507;-59
2021/10/26 07:05:56;;;;;;;35.70;17.95;;;;;;;4.10;79.82;100832.91;1744755;81;25611;-59
2021/10/26 07:08:23;;;;;;;38.28;18.27;;;;;;;4.29;79.61;100831.51;1744799;82;25654;-60
2021/10/26 07:10:51;;;;;;;36.73;18.25;;;;;;;4.47;78.83;100836.22;1744770;80;25692;-59
2021/10/26 07:13:18;;;;;;;33.20;18.25;;;;;;;4.53;77.97;100837.05;1744847;82;25452;-59
2021/10/26 07:15:45;;;;;;;34.70;17.52;;;;;;;4.61;77.68;100837.94;1744839;81;27772;-59
2021/10/26 07:18:12;;;;;;;33.05;17.17;;;;;;;4.65;77.00;100828.34;1744749;82;27327;-59
2021/10/26 07:20:38;;;;;;;33.75;17.95;;;;;;;4.73;77.01;100833.20;1744815;82;25669;-59
2021/10/26 07:23:05;;;;;;;33.85;16.82;;;;;;;4.82;76.86;100834.36;1744785;82;25610;-59
2021/10/26 07:25:32;;;;;;;33.58;17.73;;;;;;;4.89;76.60;100838.67;1744882;81;25408;-59
2021/10/26 07:28:00;;;;;;;36.70;17.02;;;;;;;4.98;76.95;100838.48;1761169;81;27637;-59
2021/10/26 07:30:32;;;;;;;37.08;18.20;;;;;;;5.12;76.11;100835.61;1761130;81;25669;-59
2021/10/26 07:33:01;;;;;;;34.95;17.82;;;;;;;5.29;76.47;100840.81;1760707;81;25503;-59
2021/10/26 07:35:33;;;;;;;38.57;20.33;;;;;;;5.37;75.45;100844.89;1761116;81;25676;-59
2021/10/26 07:37:55;;;;;;;31.80;16.75;;;;;;;5.43;75.08;100837.13;1760074;81;25644;-58
2021/10/26 07:40:21;;;;;;;30.88;17.10;;;;;;;5.53;75.74;100830.46;1761209;80;28276;-58
2021/10/26 07:42:48;;;;;;;28.80;16.97;;;;;;;5.75;74.65;100840.22;1761101;81;25669;-58
2021/10/26 07:45:14;;;;;;;32.20;17.73;;;;;;;5.84;74.49;100840.00;1761081;81;25609;-59
2021/10/26 07:47:40;;;;;;;31.57;16.60;;;;;;;6.01;74.49;100847.87;1741900;82;25616;-58
2021/10/26 07:50:09;;;;;;;33.95;17.17;;;;;;;6.30;74.57;100844.16;1741950;82;25694;-59
2021/10/26 07:52:37;;;;;;;31.95;17.57;;;;;;;6.62;74.05;100828.30;1742028;82;27544;-58
2021/10/26 07:55:09;;;;;;;32.80;17.57;;;;;;;6.89;73.68;100828.02;1761041;81;25531;-58
2021/10/26 07:57:35;;;;;;;28.32;16.40;;;;;;;7.29;73.55;100816.13;1761129;81;25539;-59
2021/10/26 08:00:04;;;;;;;31.10;16.90;;;;;;;7.70;73.47;100815.16;1761080;81;25540;-59
2021/10/26 08:02:31;;;;;;;27.20;15.88;;;;;;;8.13;70.89;100822.98;1761400;81;25459;-59
2021/10/26 08:04:58;;;;;;;25.60;14.45;;;;;;;8.45;71.46;100819.03;1761097;81;27483;-59
2021/10/26 08:07:25;;;;;;;34.25;15.98;;;;;;;8.77;70.45;100816.34;1761016;81;25422;-60
2021/10/26 08:09:57;;;;;;;24.57;15.93;;;;;;;8.93;69.98;100825.88;1741873;81;25460;-59
2021/10/26 08:12:26;;;;;;;27.87;15.15;;;;;;;8.95;68.14;100817.51;1741895;82;25852;-60
2021/10/26 08:14:54;;;;;;;25.82;15.90;;;;;;;9.08;68.32;100820.89;1761294;81;25538;-60
2021/10/26 08:17:21;;;;;;;30.15;16.02;;;;;;;9.41;68.48;100807.56;1761123;81;27461;-60
2021/10/26 08:19:49;;;;;;;24.25;14.87;;;;;;;9.76;68.09;100817.67;1761048;81;25432;-60
2021/10/26 08:22:19;;;;;;;24.00;14.25;;;;;;;10.08;67.82;100816.17;1761126;81;25463;-60
2021/10/26 08:24:52;;;;;;;24.75;15.50;;;;;;;10.22;65.61;100823.78;1761127;81;26054;-60
2021/10/26 08:27:20;;;;;;;26.93;15.38;;;;;;;10.21;64.83;100821.37;1761009;81;25612;-60
2021/10/26 08:29:53;;;;;;;30.20;16.50;;;;;;;10.26;63.80;100822.09;1761088;81;27621;-59
2021/10/26 08:38:05;;;;;;;24.18;14.13;;;;;;;10.85;64.16;100823.08;1761071;81;25525;-59
2021/10/26 08:40:37;;;;;;;26.20;14.15;;;;;;;11.08;62.43;100813.17;1761142;80;25627;-59
2021/10/26 08:43:08;;;;;;;25.17;14.40;;;;;;;11.24;63.38;100815.05;1761154;81;27475;-59
2021/10/26 08:45:37;;;;;;;26.05;14.25;;;;;;;11.50;63.30;100808.57;1761019;81;27271;-58
2021/10/26 08:48:06;;;;;;;25.62;14.25;;;;;;;11.81;62.79;100807.92;1761416;81;25668;-59
2021/10/26 08:50:35;;;;;;;23.50;14.10;;;;;;;12.11;61.29;100803.76;1761376;81;25682;-59
2021/10/26 08:53:04;;;;;;;25.43;14.60;;;;;;;12.27;59.70;100803.39;1761563;81;25466;-58
2021/10/26 08:55:36;;;;;;;21.17;13.95;;;;;;;12.49;60.50;100800.67;1761414;81;27577;-59
2021/10/26 08:58:02;;;;;;;21.60;13.88;;;;;;;12.66;58.78;100807.33;1760547;81;25673;-58
2021/10/26 09:00:28;;;;;;;21.50;13.32;;;;;;;12.81;58.21;100796.65;1761107;81;25537;-59
2021/10/26 09:02:55;;;;;;;26.35;13.95;;;;;;;13.06;57.33;100804.68;1761245;81;26272;-60
2021/10/26 09:05:24;;;;;;;23.12;13.08;;;;;;;13.23;57.72;100800.66;1761294;81;25444;-59
2021/10/26 09:08:10;;;;;;;;;;;;;;;13.36;55.80;100796.25;1763898;81;27474;-59
2021/10/26 09:10:39;;;;;;;22.35;13.32;;;;;;;13.52;54.91;100801.23;1761231;80;25676;-59
2021/10/26 09:18:50;;;;;;;24.18;13.25;;;;;;;13.59;56.52;100786.65;1761286;81;25503;-59
2021/10/26 09:21:32;;;;;;;20.43;12.25;;;;;;;13.85;55.49;100793.47;1761318;81;27561;-60
2021/10/26 09:24:02;;;;;;;22.75;12.93;;;;;;;13.78;54.41;100789.07;1761180;81;25637;-58
2021/10/26 09:26:55;;;;;;;22.52;12.53;;;;;;;13.92;55.17;100792.42;1761169;81;25471;-59
2021/10/26 09:29:43;;;;;;;30.23;15.53;;;;;;;14.26;54.39;100793.55;1760882;81;25688;-59
2021/10/26 09:32:14;;;;;;;20.65;12.88;;;;;;;14.33;54.36;100793.85;1759233;81;25680;-58
2021/10/26 09:35:02;;;;;;;21.17;12.78;;;;;;;14.53;53.19;100798.41;1761280;81;27520;-59
2021/10/26 09:37:54;;;;;;;23.27;12.50;;;;;;;14.57;53.56;100797.44;1761296;81;25649;-60
2021/10/26 09:40:22;;;;;;;23.95;12.20;;;;;;;14.72;51.94;100796.13;1761245;80;25692;-59
2021/10/26 09:42:53;;;;;;;22.67;12.37;;;;;;;14.65;52.59;100790.97;1761166;81;25518;-59
2021/10/26 09:45:31;;;;;;;19.65;11.93;;;;;;;14.68;51.97;100796.55;1761313;81;25589;-59
2021/10/26 09:48:08;;;;;;;18.23;11.60;;;;;;;14.72;52.59;100783.09;1761285;81;27511;-59
2021/10/26 09:50:36;;;;;;;19.48;12.78;;;;;;;15.21;52.85;100784.11;1760522;81;25680;-59
2021/10/26 09:53:07;;;;;;;17.40;12.47;;;;;;;15.46;51.71;100783.72;1761230;81;25470;-59
2021/10/26 09:55:47;;;;;;;22.70;12.43;;;;;;;15.57;51.07;100773.25;1761225;81;25515;-57
2021/10/26 09:58:18;;;;;;;17.30;11.57;;;;;;;15.74;49.82;100777.20;1761262;81;25482;-57
2021/10/26 10:00:48;;;;;;;24.40;11.00;;;;;;;15.72;50.08;100769.14;1753430;81;27559;-58
2021/10/26 10:03:26;;;;;;;21.20;11.68;;;;;;;15.72;49.69;100769.93;1761143;81;25435;-57
2021/10/26 10:05:56;;;;;;;16.67;11.20;;;;;;;15.79;50.93;100769.43;1761183;81;25446;-58
2021/10/26 10:08:36;;;;;;;17.45;10.95;;;;;;;16.43;52.15;100766.29;1761283;81;25625;-58
2021/10/26 10:11:17;;;;;;;16.73;11.05;;;;;;;17.14;51.08;100760.83;1742126;82;25488;-58
2021/10/26 10:13:47;;;;;;;18.42;11.75;;;;;;;17.45;49.46;100762.17;1742001;82;28082;-58
2021/10/26 10:16:16;;;;;;;17.70;10.75;;;;;;;17.30;47.75;100759.59;1716790;82;25455;-58
2021/10/26 10:18:45;;;;;;;16.60;9.70;;;;;;;17.20;48.09;100768.22;1741621;82;25616;-58
2021/10/26 10:21:14;;;;;;;19.98;10.32;;;;;;;16.96;46.87;100768.47;1750174;82;25584;-58
2021/10/26 10:23:44;;;;;;;;;;;;;;;16.96;47.51;100758.91;1752830;82;25659;-58
2021/10/26 10:26:13;;;;;;;16.95;9.93;;;;;;;17.05;47.74;100768.36;1750178;82;27648;-58
2021/10/26 10:28:45;;;;;;;19.50;10.18;;;;;;;17.16;46.75;100758.00;1745393;82;25455;-57
2021/10/26 10:31:19;;;;;;;15.20;9.45;;;;;;;17.42;46.36;100743.16;1740007;82;25744;-59
2021/10/26 10:33:45;;;;;;;19.75;9.38;;;;;;;17.57;45.20;100747.12;1744453;82;25714;-59
2021/10/26 10:36:18;;;;;;;14.30;9.88;;;;;;;17.92;45.29;100752.84;1744656;82;25531;-59
2021/10/26 10:38:46;;;;;;;14.95;9.40;;;;;;;18.38;45.97;100747.64;1744620;80;27527;-59
2021/10/26 10:41:28;;;;;;;15.55;9.43;;;;;;;18.80;44.66;100743.83;1744522;82;25471;-58
2021/10/26 10:44:00;;;;;;;13.88;9.50;;;;;;;19.24;46.05;100740.20;1744730;82;25678;-58
2021/10/26 10:46:51;;;;;;;13.90;9.30;;;;;;;19.49;42.36;100732.50;1744576;82;25657;-57
2021/10/26 10:49:27;;;;;;;18.52;10.03;;;;;;;19.00;40.24;100751.59;1744494;82;25460;-59
2021/10/26 10:52:02;;;;;;;17.05;9.38;;;;;;;18.31;41.50;100746.88;1744641;81;27158;-58
2021/10/26 10:54:44;;;;;;;17.70;8.90;;;;;;;18.15;42.18;100733.72;1743765;82;25570;-59
2021/10/26 10:57:33;;;;;;;15.98;10.10;;;;;;;17.99;41.19;100737.79;1744397;82;25618;-59
2021/10/26 11:00:05;;;;;;;14.15;9.03;;;;;;;17.71;41.59;100733.07;1744566;82;27694;-58
2021/10/26 11:02:53;;;;;;;16.32;8.45;;;;;;;17.49;43.64;100731.06;1744643;82;25551;-59
2021/10/26 11:05:38;;;;;;;11.83;8.03;;;;;;;17.51;42.56;100736.98;1744636;82;28179;-58
2021/10/26 11:08:09;;;;;;;13.85;7.80;;;;;;;17.24;42.37;100731.67;1744484;82;25508;-59
2021/10/26 11:10:56;;;;;;;15.10;7.92;;;;;;;17.07;41.22;100733.28;1744605;80;25536;-58
2021/10/26 11:13:31;;;;;;;12.20;7.72;;;;;;;16.80;42.21;100725.41;1744554;81;25640;-59
2021/10/26 11:16:05;;;;;;;16.77;8.45;;;;;;;16.69;43.40;100712.53;1743934;81;25535;-58
2021/10/26 11:18:46;;;;;;;10.10;7.35;;;;;;;16.73;44.10;100707.97;1744285;82;27458;-58
2021/10/26 11:21:27;;;;;;;22.15;8.78;;;;;;;16.78;44.26;100707.16;1744507;82;25496;-58
2021/10/26 11:24:07;;;;;;;15.45;8.73;;;;;;;16.87;44.36;100715.86;1744579;82;25652;-59
2021/10/26 11:26:38;;;;;;;16.65;8.28;;;;;;;16.77;43.93;100711.59;1744652;81;25561;-58
2021/10/26 11:29:11;;;;;;;20.77;9.13;;;;;;;16.70;43.97;100716.84;1749337;82;25653;-59
2021/10/26 11:31:50;;;;;;;14.93;8.83;;;;;;;16.58;43.75;100708.06;1750206;81;28189;-58
2021/10/26 11:34:27;;;;;;;;;;;;;;;16.38;43.88;100713.84;1752699;82;27306;-58
2021/10/26 11:37:09;;;;;;;22.52;9.70;;;;;;;16.32;44.92;100705.63;1748224;82;25603;-58
2021/10/26 11:39:38;;;;;;;13.43;9.40;;;;;;;16.30;44.88;100707.91;1750076;80;25897;-58